Park City, UT (84098)

12:27 PM MDT on August 03, 2015 (GMT -0600)
Pinebrook Upper Ecker hill | | Change Station
CLOSE
Current Station
Personal Weather Station
Location: Park City, UT
Elevation: 6991 ft
Nearby Weather Stations

Elev 6991 ft 40.73 °N, 111.57 °W | Updated 14 minutes ago

Overcast
Overcast
55.6 °F
Feels Like 55.6 °F
N
2.2
Wind Variable Wind from SSW

Today
High -- | Low -- °F
--% Chance of Precip.
Yesterday
High -- | Low -- °F
Precip. -- in
6:24 AM 8:39 PM
Waning Gibbous, 85% visible
Pressure 30.15 in
Visibility 5.0 miles
Clouds Scattered Clouds 2300 ft
Mostly Cloudy 5500 ft
Overcast 7000 ft
Dew Point 51 °F
Humidity 85%
Rainfall 0.42 in
Snow Depth Not available.
UV 3 out of 12
Pollen 1.90 out of 12
Air Quality Not available.
Flu Activity Not available.
METAR K36U 031815Z AUTO 00000KT 5SM -RA SCT023 BKN055 OVC070 16/13 A3015 RMK AO2

More Conditions Fewer Conditions

Pressure 30.15 in
Visibility 5.0 miles
Clouds Scattered Clouds 2300 ft
Mostly Cloudy 5500 ft
Overcast 7000 ft
Dew Point 51 °F
Humidity 85%
Rainfall 0.42 in
Snow Depth Not available.
UV 3 out of 12
Pollen 1.90 out of 12
Air Quality Not available.
Flu Activity Not available.
METAR K36U 031815Z AUTO 00000KT 5SM -RA SCT023 BKN055 OVC070 16/13 A3015 RMK AO2

More Conditions Fewer Conditions

10-Day Weather Forecast

×

Almanac

Astronomy

Aug. 03, 2015 Rise Set
Actual Time
Civil Twilight
Nautical Twilight
Astronomical Twilight
Moon
Length of Visible Light
Length of Day
Tomorrow will be .
, % of the Moon is Illuminated

Today's Extremes

State Highs State Lows

Community

WunderPhotos

Upload Photos

1,843,697 photos uploaded!

WunderBlogs® & News

Nearby

Air Quality

  Air Quality AQ Index Pollutant
Not available.

Snow Depth

Station Depth Elevation

Earthquake Activity

City Distance Mag. Time & Date
Minimum magnitude displayed is 2.5.

Coastal Water Temperatures

Place Temperature

Stations

Nearby Weather Stations

Station Location Temp. Windchill Dew Point Humidity Wind Precip. Elev Updated Type